createdAt,value
2018-07-19T00:00:27.828Z,49.52
2018-07-19T00:01:27.815Z,49.62
2018-07-19T00:02:27.806Z,49.42
2018-07-19T00:03:27.796Z,49.73
2018-07-19T00:04:27.781Z,49.73
2018-07-19T00:05:27.785Z,50.23
2018-07-19T00:06:27.762Z,50.73
2018-07-19T00:07:27.750Z,50.63
2018-07-19T00:08:27.738Z,50.33
2018-07-19T00:09:27.730Z,50.63
2018-07-19T00:10:27.730Z,50.63
2018-07-19T00:11:27.707Z,50.23
2018-07-19T00:12:27.702Z,50.76
2018-07-19T00:13:27.687Z,51.26
2018-07-19T00:14:27.674Z,51.26
2018-07-19T00:15:27.676Z,51.26
2018-07-19T00:16:27.695Z,51.36
2018-07-19T00:17:27.643Z,50.85
2018-07-19T00:18:27.633Z,51.36
2018-07-19T00:19:27.618Z,51.46
2018-07-19T00:20:27.609Z,51.97
2018-07-19T00:21:27.595Z,51.36
2018-07-19T00:22:27.606Z,51.06
2018-07-19T00:23:27.574Z,52.17
2018-07-19T00:24:27.564Z,51.28
2018-07-19T00:25:27.551Z,52.69
2018-07-19T00:26:27.540Z,52.69
2018-07-19T00:27:27.528Z,52.59
2018-07-19T00:28:27.534Z,53.00
2018-07-19T00:29:27.505Z,53.02
2018-07-19T00:30:27.499Z,52.82
2018-07-19T00:31:27.488Z,53.32
2018-07-19T00:32:27.493Z,53.22
2018-07-19T00:33:27.465Z,53.52
2018-07-19T00:34:27.455Z,53.32
2018-07-19T00:35:27.440Z,53.63
2018-07-19T00:36:27.431Z,53.63
2018-07-19T00:37:27.423Z,53.63
2018-07-19T00:38:27.438Z,53.22
2018-07-19T00:39:27.406Z,53.22
2018-07-19T00:40:27.389Z,53.32
2018-07-19T00:41:27.376Z,53.12
2018-07-19T00:42:27.368Z,53.85
2018-07-19T00:43:27.354Z,53.83
2018-07-19T00:44:27.357Z,53.65
2018-07-19T00:45:27.335Z,54.46
2018-07-19T00:46:27.325Z,54.08
2018-07-19T00:47:27.311Z,54.36
2018-07-19T00:48:27.303Z,54.25
2018-07-19T00:49:27.308Z,53.45
2018-07-19T00:50:27.283Z,54.05
2018-07-19T00:51:27.275Z,54.86
2018-07-19T00:52:27.257Z,54.25
2018-07-19T00:53:27.248Z,54.05
2018-07-19T00:54:27.238Z,54.36
2018-07-19T00:55:27.243Z,54.08
2018-07-19T00:56:27.219Z,54.89
2018-07-19T00:57:27.207Z,53.98
2018-07-19T00:58:27.196Z,53.88
2018-07-19T00:59:27.207Z,54.18
2018-07-19T01:00:27.176Z,54.89
2018-07-19T01:01:27.164Z,54.89
2018-07-19T01:02:27.157Z,55.09
2018-07-19T01:03:27.146Z,54.28
2018-07-19T01:04:27.136Z,54.10
2018-07-19T01:05:27.137Z,54.61
2018-07-19T01:06:27.115Z,54.68
2018-07-19T01:07:27.102Z,55.19
2018-07-19T01:08:27.092Z,54.79
2018-07-19T01:09:27.086Z,54.99
2018-07-19T01:10:27.088Z,54.91
2018-07-19T01:11:27.060Z,55.32
2018-07-19T01:12:27.055Z,55.21
2018-07-19T01:13:27.036Z,54.91
2018-07-19T01:14:27.028Z,55.21
2018-07-19T01:15:27.054Z,55.01
2018-07-19T01:16:27.021Z,54.91
2018-07-19T01:17:26.995Z,54.89
2018-07-19T01:18:26.981Z,55.11
2018-07-19T01:19:26.972Z,55.21
2018-07-19T01:20:26.975Z,55.01
2018-07-19T01:21:26.952Z,55.41
2018-07-19T01:22:26.957Z,55.32
2018-07-19T01:23:26.929Z,55.85
2018-07-19T01:24:26.918Z,55.44
2018-07-19T01:25:26.927Z,55.94
2018-07-19T01:26:26.900Z,56.56
2018-07-19T01:27:26.886Z,55.94
2018-07-19T01:28:27.711Z,56.05
2018-07-19T01:29:26.864Z,56.25
2018-07-19T01:30:26.856Z,55.74
2018-07-19T01:31:26.844Z,55.54
2018-07-19T01:32:26.851Z,55.85
2018-07-19T01:33:26.822Z,56.85
2018-07-19T01:34:26.808Z,56.65
2018-07-19T01:35:26.797Z,56.65
2018-07-19T01:36:26.789Z,57.16
2018-07-19T01:37:26.779Z,56.96
2018-07-19T01:38:26.779Z,56.76
2018-07-19T01:39:26.759Z,57.18
2018-07-19T01:40:26.746Z,57.39
2018-07-19T01:41:26.732Z,57.59
2018-07-19T01:42:26.756Z,57.39
2018-07-19T01:43:26.710Z,57.49
2018-07-19T01:44:26.701Z,57.69
2018-07-19T01:45:26.691Z,57.69
2018-07-19T01:46:26.679Z,57.59
2018-07-19T01:47:26.669Z,57.49
2018-07-19T01:48:26.672Z,58.00
2018-07-19T01:49:26.647Z,57.09
2018-07-19T01:50:26.647Z,56.88
2018-07-19T01:51:26.626Z,56.48
2018-07-19T01:52:26.615Z,56.88
2018-07-19T01:53:26.626Z,57.39
2018-07-19T01:54:26.595Z,57.79
2018-07-19T01:55:26.582Z,58.00
2018-07-19T01:56:26.571Z,57.89
2018-07-19T01:57:26.556Z,57.39
2018-07-19T01:58:26.549Z,57.79
2018-07-19T01:59:26.551Z,57.69
2018-07-19T02:00:26.524Z,57.18
2018-07-19T02:01:26.513Z,57.59
2018-07-19T02:02:26.517Z,57.59
2018-07-19T02:03:26.492Z,58.00
2018-07-19T02:04:26.480Z,58.00
2018-07-19T02:05:26.487Z,57.89
2018-07-19T02:06:26.462Z,57.79
2018-07-19T02:07:26.452Z,57.89
2018-07-19T02:08:26.437Z,58.60
2018-07-19T02:09:26.470Z,58.50
2018-07-19T02:10:26.417Z,58.60
2018-07-19T02:11:26.407Z,58.50
2018-07-19T02:12:26.393Z,58.50
2018-07-19T02:13:26.386Z,58.91
2018-07-19T02:14:26.377Z,58.91
2018-07-19T02:15:26.383Z,58.83
2018-07-19T02:16:26.350Z,58.70
2018-07-19T02:17:26.340Z,58.70
2018-07-19T02:18:26.329Z,58.40
2018-07-19T02:19:26.320Z,58.60
2018-07-19T02:20:26.308Z,58.70
2018-07-19T02:21:26.315Z,58.70
2018-07-19T02:22:26.289Z,58.60
2018-07-19T02:23:26.278Z,58.50
2018-07-19T02:24:26.273Z,58.60
2018-07-19T02:25:26.259Z,58.80
2018-07-19T02:26:26.260Z,58.40
2018-07-19T02:27:26.234Z,58.70
2018-07-19T02:28:26.224Z,58.20
2018-07-19T02:29:26.214Z,58.30
2018-07-19T02:30:26.201Z,58.20
2018-07-19T02:31:26.212Z,58.70
2018-07-19T02:32:26.180Z,58.40
2018-07-19T02:33:26.169Z,58.58
2018-07-19T02:34:26.156Z,58.47
2018-07-19T02:35:26.148Z,58.27
2018-07-19T02:36:26.139Z,58.78
2018-07-19T02:37:26.140Z,57.87
2018-07-19T02:38:26.130Z,57.67
2018-07-19T02:39:26.106Z,57.87
2018-07-19T02:40:26.095Z,58.47
2018-07-19T02:41:26.088Z,57.97
2018-07-19T02:42:26.089Z,57.76
2018-07-19T02:43:26.063Z,58.00
2018-07-19T02:44:26.053Z,57.87
2018-07-19T02:45:26.045Z,58.67
2018-07-19T02:46:26.035Z,57.87
2018-07-19T02:47:26.038Z,57.87
2018-07-19T02:48:26.037Z,57.97
2018-07-19T02:49:26.004Z,57.87
2018-07-19T02:50:25.992Z,57.76
2018-07-19T02:51:25.981Z,57.97
2018-07-19T02:52:25.971Z,57.87
2018-07-19T02:53:25.958Z,57.76
2018-07-19T02:54:25.962Z,57.76
2018-07-19T02:55:25.938Z,57.97
2018-07-19T02:56:25.930Z,57.87
2018-07-19T02:57:25.917Z,57.97
2018-07-19T02:58:25.933Z,57.64
2018-07-19T02:59:25.896Z,57.14
2018-07-19T03:00:25.886Z,57.74
2018-07-19T03:01:25.874Z,57.84
2018-07-19T03:02:25.863Z,57.74
2018-07-19T03:03:25.858Z,57.94
2018-07-19T03:04:25.856Z,57.87
2018-07-19T03:05:25.833Z,57.94
2018-07-19T03:06:25.881Z,57.84
2018-07-19T03:07:25.816Z,57.97
2018-07-19T03:08:25.801Z,57.76
2018-07-19T03:09:25.814Z,57.97
2018-07-19T03:10:25.780Z,57.87
2018-07-19T03:11:25.769Z,58.87
2018-07-19T03:12:25.759Z,58.58
2018-07-19T03:13:25.748Z,57.97
2018-07-19T03:14:25.740Z,58.47
2018-07-19T03:15:25.744Z,58.67
2018-07-19T03:16:25.717Z,58.58
2018-07-19T03:17:25.722Z,57.97
2018-07-19T03:18:25.700Z,57.87
2018-07-19T03:19:25.691Z,57.97
2018-07-19T03:20:25.692Z,57.67
2018-07-19T03:21:25.665Z,57.67
2018-07-19T03:22:25.656Z,57.97
2018-07-19T03:23:25.647Z,57.97
2018-07-19T03:24:25.634Z,58.07
2018-07-19T03:25:25.637Z,57.87
2018-07-19T03:26:25.612Z,58.17
2018-07-19T03:27:25.601Z,57.36
2018-07-19T03:28:25.592Z,57.34
2018-07-19T03:29:25.584Z,57.36
2018-07-19T03:30:25.584Z,57.43
2018-07-19T03:31:25.564Z,57.34
2018-07-19T03:32:25.566Z,57.26
2018-07-19T03:33:25.541Z,57.34
2018-07-19T03:34:25.530Z,57.54
2018-07-19T03:35:25.521Z,57.76
2018-07-19T03:36:25.524Z,57.46
2018-07-19T03:37:25.497Z,57.54
2018-07-19T03:38:25.488Z,57.84
2018-07-19T03:39:25.479Z,57.64
2018-07-19T03:40:25.467Z,57.64
2018-07-19T03:41:25.472Z,57.64
2018-07-19T03:42:25.467Z,57.94
2018-07-19T03:43:25.436Z,57.84
2018-07-19T03:44:25.429Z,57.74
2018-07-19T03:45:25.416Z,57.94
2018-07-19T03:46:25.405Z,57.84
2018-07-19T03:47:25.394Z,57.54
2018-07-19T03:48:25.408Z,57.91
2018-07-19T03:49:25.377Z,58.25
2018-07-19T03:50:25.367Z,59.48
2018-07-19T03:51:25.350Z,59.58
2018-07-19T03:52:25.341Z,60.02
2018-07-19T03:53:25.328Z,61.43
2018-07-19T03:54:25.332Z,61.87
2018-07-19T03:55:25.307Z,61.46
2018-07-19T03:56:25.297Z,61.87
2018-07-19T03:57:25.290Z,62.10
2018-07-19T03:58:25.288Z,62.77
2018-07-19T03:59:25.268Z,62.60
2018-07-19T04:00:25.257Z,62.67
2018-07-19T04:01:25.246Z,62.70
2018-07-19T04:02:25.234Z,63.10
2018-07-19T04:03:25.265Z,63.01
2018-07-19T04:04:25.243Z,62.50
2018-07-19T04:05:25.201Z,63.10
2018-07-19T04:06:25.192Z,63.24
2018-07-19T04:07:25.186Z,63.21
2018-07-19T04:08:25.173Z,63.44
2018-07-19T04:09:25.184Z,63.64
2018-07-19T04:10:25.152Z,63.64
2018-07-19T04:11:25.140Z,63.64
2018-07-19T04:12:25.128Z,63.84
2018-07-19T04:13:25.118Z,64.07
2018-07-19T04:14:25.109Z,64.15
2018-07-19T04:15:25.110Z,63.95
2018-07-19T04:16:25.085Z,64.07
2018-07-19T04:17:25.074Z,64.07
2018-07-19T04:18:25.066Z,64.15
2018-07-19T04:19:25.069Z,64.15
2018-07-19T04:20:25.045Z,63.54
2018-07-19T04:21:25.030Z,63.64
2018-07-19T04:22:25.026Z,63.84
2018-07-19T04:23:25.012Z,63.54
2018-07-19T04:24:25.020Z,63.54
2018-07-19T04:25:24.990Z,63.21
2018-07-19T04:26:24.981Z,63.51
2018-07-19T04:27:24.970Z,63.01
2018-07-19T04:28:24.961Z,62.90
2018-07-19T04:29:24.950Z,63.31
2018-07-19T04:30:24.949Z,63.21
2018-07-19T04:31:24.926Z,63.64
2018-07-19T04:32:24.995Z,63.31
2018-07-19T04:33:24.906Z,63.01
2018-07-19T04:34:24.895Z,63.01
2018-07-19T04:35:24.898Z,62.90
2018-07-19T04:36:24.872Z,63.21
2018-07-19T04:37:24.864Z,63.51
2018-07-19T04:38:24.851Z,62.60
2018-07-19T04:39:24.843Z,63.01
2018-07-19T04:40:24.844Z,63.31
2018-07-19T04:41:24.820Z,63.01
2018-07-19T04:42:24.810Z,63.71
2018-07-19T04:43:24.805Z,64.12
2018-07-19T04:44:24.809Z,63.51
2018-07-19T04:45:24.781Z,63.61
2018-07-19T04:46:24.771Z,63.18
2018-07-19T04:47:24.756Z,63.21
2018-07-19T04:48:24.749Z,63.28
2018-07-19T04:49:24.739Z,63.68
2018-07-19T04:50:24.762Z,63.68
2018-07-19T04:51:24.716Z,63.28
2018-07-19T04:52:24.706Z,63.48
2018-07-19T04:53:24.696Z,63.58
2018-07-19T04:54:24.682Z,63.85
2018-07-19T04:55:24.673Z,64.09
2018-07-19T04:56:24.680Z,63.96
2018-07-19T04:57:24.651Z,64.36
2018-07-19T04:58:24.645Z,64.36
2018-07-19T04:59:24.633Z,64.26
2018-07-19T05:00:24.622Z,64.36
2018-07-19T05:01:24.608Z,64.16
2018-07-19T05:02:24.607Z,64.16
2018-07-19T05:03:24.591Z,64.26
2018-07-19T05:04:24.576Z,64.43
2018-07-19T05:05:24.567Z,63.42
2018-07-19T05:06:24.564Z,64.03
2018-07-19T05:07:24.543Z,64.23
2018-07-19T05:08:24.535Z,64.03
2018-07-19T05:09:24.531Z,64.13
2018-07-19T05:10:24.513Z,64.23
2018-07-19T05:11:24.499Z,64.33
2018-07-19T05:12:24.487Z,64.10
2018-07-19T05:13:24.495Z,64.13
2018-07-19T05:14:24.467Z,64.30
2018-07-19T05:15:24.456Z,64.00
2018-07-19T05:16:24.441Z,64.20
2018-07-19T05:17:24.433Z,64.20
2018-07-19T05:18:24.457Z,63.70
2018-07-19T05:19:24.407Z,63.19
2018-07-19T05:20:24.399Z,62.55
2018-07-19T05:21:24.388Z,61.47
2018-07-19T05:22:24.375Z,62.28
2018-07-19T05:23:24.366Z,62.28
2018-07-19T05:24:24.363Z,62.35
2018-07-19T05:25:24.343Z,62.65
2018-07-19T05:26:24.330Z,61.75
2018-07-19T05:27:24.367Z,61.85
2018-07-19T05:28:24.310Z,62.12
2018-07-19T05:29:24.309Z,62.73
2018-07-19T05:30:24.289Z,62.12
2018-07-19T05:31:24.275Z,59.90
2018-07-19T05:32:24.264Z,60.98
2018-07-19T05:33:24.255Z,61.29
2018-07-19T05:34:24.253Z,60.65
2018-07-19T05:35:24.231Z,59.14
2018-07-19T05:36:24.231Z,58.54
2018-07-19T05:37:24.210Z,57.70
2018-07-19T05:38:24.203Z,57.70
2018-07-19T05:39:24.196Z,57.90
2018-07-19T05:40:24.235Z,58.58
2018-07-19T05:41:24.167Z,55.26
2018-07-19T05:42:24.215Z,55.26
2018-07-19T05:43:24.150Z,55.23
2018-07-19T05:44:24.139Z,53.52
2018-07-19T05:45:24.139Z,53.20
2018-07-19T05:46:24.114Z,53.60
2018-07-19T05:47:24.142Z,52.87
2018-07-19T05:48:24.093Z,52.57
2018-07-19T05:49:24.084Z,52.24
2018-07-19T05:50:24.072Z,51.21
2018-07-19T05:51:24.061Z,52.09
2018-07-19T05:52:24.118Z,50.46
2018-07-19T05:53:24.055Z,50.74
2018-07-19T05:54:24.028Z,50.92
2018-07-19T05:55:24.036Z,48.93
2018-07-19T05:56:24.010Z,48.91
2018-07-19T05:57:23.999Z,48.61
2018-07-19T05:58:24.003Z,48.71
2018-07-19T05:59:23.978Z,49.51
2018-07-19T06:00:23.968Z,48.91
2018-07-19T06:01:23.953Z,49.01
2018-07-19T06:02:23.942Z,49.31
2018-07-19T06:03:23.949Z,49.11
2018-07-19T06:04:23.923Z,48.01
2018-07-19T06:05:23.912Z,48.51
2018-07-19T06:06:23.902Z,49.21
2018-07-19T06:07:23.908Z,48.81
2018-07-19T06:08:23.881Z,49.31
2018-07-19T06:09:23.872Z,48.31
2018-07-19T06:10:23.859Z,48.51
2018-07-19T06:11:23.847Z,48.91
2018-07-19T06:12:23.851Z,48.81
2018-07-19T06:13:23.848Z,48.79
2018-07-19T06:14:23.815Z,48.79
2018-07-19T06:15:23.804Z,48.57
2018-07-19T06:16:23.792Z,46.76
2018-07-19T06:17:23.782Z,47.06
2018-07-19T06:18:23.774Z,47.16
2018-07-19T06:19:23.782Z,47.04
2018-07-19T06:20:23.751Z,46.34
2018-07-19T06:21:23.740Z,45.64
2018-07-19T06:22:23.731Z,46.24
2018-07-19T06:23:23.717Z,44.92
2018-07-19T06:24:23.748Z,45.04
2018-07-19T06:25:23.698Z,45.31
2018-07-19T06:26:23.684Z,45.92
2018-07-19T06:27:23.676Z,45.51
2018-07-19T06:28:23.684Z,46.01
2018-07-19T06:29:23.654Z,45.42
2018-07-19T06:30:23.666Z,45.51
2018-07-19T06:31:23.636Z,45.92
2018-07-19T06:32:23.623Z,45.79
2018-07-19T06:33:23.610Z,44.49
2018-07-19T06:34:23.618Z,45.00
2018-07-19T06:35:23.589Z,43.99
2018-07-19T06:36:23.578Z,44.70
2018-07-19T06:37:23.570Z,44.87
2018-07-19T06:38:23.554Z,42.57
2018-07-19T06:39:23.547Z,43.48
2018-07-19T06:40:23.546Z,42.87
2018-07-19T06:41:23.538Z,42.27
2018-07-19T06:42:23.514Z,42.47
2018-07-19T06:43:23.500Z,43.27
2018-07-19T06:44:23.489Z,42.85
2018-07-19T06:45:23.497Z,43.45
2018-07-19T06:46:23.467Z,42.25
2018-07-19T06:47:23.457Z,42.25
2018-07-19T06:48:23.448Z,42.35
2018-07-19T06:49:23.451Z,42.15
2018-07-19T06:50:23.425Z,42.95
2018-07-19T06:51:23.429Z,41.85
2018-07-19T06:52:23.404Z,41.66
2018-07-19T06:53:23.394Z,42.55
2018-07-19T06:54:23.381Z,42.25
2018-07-19T06:55:23.371Z,42.43
2018-07-19T06:56:23.377Z,42.24
2018-07-19T06:57:23.354Z,41.91
2018-07-19T06:58:23.338Z,40.32
2018-07-19T06:59:23.329Z,40.14
2018-07-19T07:00:23.316Z,39.64
2018-07-19T07:01:23.307Z,39.65
2018-07-19T07:02:23.323Z,41.05
2018-07-19T07:03:23.285Z,40.06
2018-07-19T07:04:23.279Z,39.65
2018-07-19T07:05:23.262Z,40.08
2018-07-19T07:06:23.252Z,40.37
2018-07-19T07:07:23.240Z,39.69
2018-07-19T07:08:23.246Z,40.59
2018-07-19T07:09:23.223Z,40.39
2018-07-19T07:10:23.220Z,40.67
2018-07-19T07:11:23.206Z,40.36
2018-07-19T07:12:23.192Z,39.54
2018-07-19T07:13:23.189Z,39.92
2018-07-19T07:14:23.205Z,39.70
2018-07-19T07:15:23.154Z,37.77
2018-07-19T07:16:23.146Z,37.83
2018-07-19T07:17:23.137Z,35.89
2018-07-19T07:18:23.121Z,35.95
2018-07-19T07:19:23.114Z,34.61
2018-07-19T07:20:23.121Z,34.06
2018-07-19T07:21:23.091Z,33.44
2018-07-19T07:22:23.081Z,32.32
2018-07-19T07:23:23.073Z,31.82
2018-07-19T07:24:23.063Z,31.01
2018-07-19T07:25:23.051Z,30.99
2018-07-19T07:26:23.062Z,31.79
2018-07-19T07:27:23.031Z,31.01
2018-07-19T07:28:23.095Z,30.10
2018-07-19T07:29:23.005Z,30.98
2018-07-19T07:30:22.998Z,29.48
2018-07-19T07:31:22.984Z,29.20
2018-07-19T07:32:22.990Z,29.27
2018-07-19T07:33:22.965Z,28.27
2018-07-19T07:34:22.955Z,27.96
2018-07-19T07:35:22.944Z,28.28
2018-07-19T07:36:22.939Z,29.48
2018-07-19T07:37:22.937Z,29.47
2018-07-19T07:38:22.913Z,29.85
2018-07-19T07:39:22.902Z,29.24
2018-07-19T07:40:22.888Z,29.53
2018-07-19T07:41:22.878Z,27.96
2018-07-19T07:42:22.883Z,28.06
2018-07-19T07:43:22.876Z,29.35
2018-07-19T07:44:22.852Z,28.85
2018-07-19T07:45:22.840Z,28.33
2018-07-19T07:46:22.826Z,28.23
2018-07-19T07:47:22.816Z,27.75
2018-07-19T07:48:22.810Z,28.26
2018-07-19T07:49:22.810Z,27.87
2018-07-19T07:50:22.783Z,29.16
2018-07-19T07:51:22.774Z,28.08
2018-07-19T07:52:22.781Z,28.66
2018-07-19T07:53:22.752Z,28.27
2018-07-19T07:54:22.742Z,28.97
2018-07-19T07:55:22.732Z,28.08
2018-07-19T07:56:22.724Z,28.47
2018-07-19T07:57:22.728Z,29.47
2018-07-19T07:58:22.701Z,29.69
2018-07-19T07:59:22.720Z,30.79
2018-07-19T08:00:22.693Z,30.91
2018-07-19T08:01:22.694Z,30.88
2018-07-19T08:02:22.663Z,29.78
2018-07-19T08:03:22.658Z,28.78
2018-07-19T08:04:22.642Z,29.46
2018-07-19T08:05:22.629Z,28.16
2018-07-19T08:06:22.633Z,29.23
2018-07-19T08:07:22.607Z,28.41
2018-07-19T08:08:22.599Z,27.44
2018-07-19T08:09:22.608Z,27.97
2018-07-19T08:10:22.576Z,28.68
2018-07-19T08:11:22.566Z,28.68
2018-07-19T08:12:22.572Z,29.25
2018-07-19T08:13:22.557Z,29.24
2018-07-19T08:14:22.536Z,29.43
2018-07-19T08:15:22.527Z,29.30
2018-07-19T08:16:22.529Z,28.79
2018-07-19T08:17:22.505Z,27.53
2018-07-19T08:18:22.510Z,28.23
2018-07-19T08:19:22.496Z,28.08
2018-07-19T08:20:22.476Z,28.59
2018-07-19T08:21:22.464Z,29.30
2018-07-19T08:22:22.451Z,28.92
2018-07-19T08:23:22.457Z,29.82
2018-07-19T08:24:22.434Z,29.85
2018-07-19T08:25:22.442Z,30.34
2018-07-19T08:26:22.411Z,30.94
2018-07-19T08:27:22.401Z,30.34
2018-07-19T08:28:22.392Z,31.05
2018-07-19T08:29:22.382Z,30.36
2018-07-19T08:30:22.369Z,30.97
2018-07-19T08:31:22.396Z,31.07
2018-07-19T08:32:22.383Z,31.35
2018-07-19T08:33:22.340Z,30.52
2018-07-19T08:34:22.333Z,30.79
2018-07-19T08:35:22.320Z,29.99
2018-07-19T08:36:22.310Z,28.61
2018-07-19T08:37:22.312Z,29.37
2018-07-19T08:38:22.289Z,28.02
2018-07-19T08:39:22.278Z,29.32
2018-07-19T08:40:22.283Z,29.80
2018-07-19T08:41:22.262Z,29.82
2018-07-19T08:42:22.260Z,30.52
2018-07-19T08:43:22.240Z,29.36
2018-07-19T08:44:22.226Z,29.74
2018-07-19T08:45:22.217Z,29.36
2018-07-19T08:46:22.206Z,29.74
2018-07-19T08:47:22.217Z,30.73
2018-07-19T08:48:22.185Z,29.32
2018-07-19T08:49:22.174Z,28.51
2018-07-19T08:50:22.168Z,28.50
2018-07-19T08:51:22.154Z,28.19
2018-07-19T08:52:22.161Z,28.79
2018-07-19T08:53:22.155Z,28.61
2018-07-19T08:54:22.127Z,29.11
2018-07-19T08:55:22.115Z,30.09
2018-07-19T08:56:22.141Z,28.00
2018-07-19T08:57:22.096Z,29.00
2018-07-19T08:58:22.082Z,28.24
2018-07-19T08:59:22.112Z,29.61
2018-07-19T09:00:22.061Z,28.80
2018-07-19T09:01:22.054Z,29.66
2018-07-19T09:02:22.059Z,29.75
2018-07-19T09:03:22.036Z,28.27
2018-07-19T09:04:22.022Z,28.27
2018-07-19T09:05:22.029Z,28.09
2018-07-19T09:06:22.006Z,28.68
2018-07-19T09:07:21.994Z,29.57
2018-07-19T09:08:21.996Z,28.38
2018-07-19T09:09:21.976Z,29.58
2018-07-19T09:10:21.979Z,29.47
2018-07-19T09:11:21.953Z,28.78
2018-07-19T09:12:21.945Z,28.50
2018-07-19T09:13:21.949Z,29.50
2018-07-19T09:14:21.925Z,30.05
2018-07-19T09:15:21.912Z,31.22
2018-07-19T09:16:21.920Z,31.01
2018-07-19T09:17:21.892Z,31.88
2018-07-19T09:18:21.897Z,30.30
2018-07-19T09:19:21.910Z,32.16
2018-07-19T09:20:21.865Z,31.45
2018-07-19T09:21:21.855Z,29.86
2018-07-19T09:22:21.843Z,29.66
2018-07-19T09:23:21.849Z,28.55
2018-07-19T09:24:21.839Z,29.33
2018-07-19T09:25:21.816Z,28.52
2018-07-19T09:26:21.803Z,28.82
2018-07-19T09:27:21.796Z,28.81
2018-07-19T09:28:21.796Z,28.51
2018-07-19T09:29:21.777Z,28.00
2018-07-19T09:30:21.781Z,28.09
2018-07-19T09:31:21.770Z,27.89
2018-07-19T09:32:21.744Z,28.20
2018-07-19T09:33:21.738Z,28.12
2018-07-19T09:34:21.724Z,27.33
2018-07-19T09:35:21.717Z,27.33
2018-07-19T09:36:21.748Z,27.54
2018-07-19T09:37:21.695Z,28.34
2018-07-19T09:38:21.707Z,28.05
2018-07-19T09:39:21.676Z,28.54
2018-07-19T09:40:21.668Z,26.98
2018-07-19T09:41:21.657Z,28.28
2018-07-19T09:42:21.690Z,28.48
2018-07-19T09:43:21.640Z,28.38
2018-07-19T09:44:21.630Z,28.91
2018-07-19T09:45:21.617Z,29.61
2018-07-19T09:46:21.612Z,31.79
2018-07-19T09:47:21.601Z,29.69
2018-07-19T09:48:21.608Z,28.20
2018-07-19T09:49:21.577Z,27.99
2018-07-19T09:50:21.570Z,28.08
2018-07-19T09:51:21.560Z,28.55
2018-07-19T09:52:21.550Z,27.85
2018-07-19T09:53:21.540Z,28.26
2018-07-19T09:54:21.544Z,28.27
2018-07-19T09:55:21.523Z,29.14
2018-07-19T09:56:21.509Z,29.34
2018-07-19T09:57:21.502Z,27.86
2018-07-19T09:58:21.538Z,28.47
2018-07-19T09:59:21.508Z,28.26
2018-07-19T10:00:21.475Z,28.42
2018-07-19T10:01:21.470Z,27.74
2018-07-19T10:02:21.454Z,29.51
2018-07-19T10:03:21.443Z,28.91
2018-07-19T10:04:21.447Z,28.11
2018-07-19T10:05:21.435Z,27.39
2018-07-19T10:06:21.411Z,27.37
2018-07-19T10:07:21.404Z,26.61
2018-07-19T10:08:21.392Z,27.37
2018-07-19T10:09:21.395Z,28.06
2018-07-19T10:10:21.420Z,27.67
2018-07-19T10:11:21.365Z,27.37
2018-07-19T10:12:21.355Z,27.77
2018-07-19T10:13:21.346Z,26.61
2018-07-19T10:14:21.337Z,27.61
2018-07-19T10:15:21.349Z,27.43
2018-07-19T10:16:21.332Z,27.53
2018-07-19T10:17:21.352Z,27.74
2018-07-19T10:18:21.299Z,27.53
2018-07-19T10:19:21.303Z,27.53
2018-07-19T10:20:21.279Z,27.22
2018-07-19T10:21:21.282Z,28.49
2018-07-19T10:22:21.260Z,26.61
2018-07-19T10:23:21.263Z,26.92
2018-07-19T10:24:21.286Z,27.94
2018-07-19T10:25:21.232Z,28.70
2018-07-19T10:26:21.222Z,27.91
2018-07-19T10:27:21.225Z,28.11
2018-07-19T10:28:21.201Z,27.71
2018-07-19T10:29:21.196Z,28.30
2018-07-19T10:30:21.183Z,28.58
2018-07-19T10:31:21.179Z,27.78
2018-07-19T10:32:21.320Z,27.47
2018-07-19T10:33:21.158Z,27.36
2018-07-19T10:34:21.214Z,26.97
2018-07-19T10:35:21.137Z,27.08
2018-07-19T10:36:21.128Z,27.08
2018-07-19T10:37:21.134Z,27.00
2018-07-19T10:38:21.112Z,26.52
2018-07-19T10:39:21.098Z,27.42
2018-07-19T10:40:21.089Z,27.32
2018-07-19T10:41:21.079Z,28.09
2018-07-19T10:42:21.085Z,29.16
2018-07-19T10:43:21.074Z,27.46
2018-07-19T10:44:21.059Z,27.95
2018-07-19T10:45:21.041Z,27.25
2018-07-19T10:46:21.031Z,27.04
2018-07-19T10:47:21.024Z,27.25
2018-07-19T10:48:21.028Z,28.25
2018-07-19T10:49:21.006Z,28.15
2018-07-19T10:50:21.014Z,28.15
2018-07-19T10:51:20.985Z,27.84
2018-07-19T10:52:20.975Z,27.04
2018-07-19T10:53:20.992Z,28.12
2018-07-19T10:54:20.959Z,27.63
2018-07-19T10:55:20.947Z,28.02
2018-07-19T10:56:20.941Z,27.62
2018-07-19T10:57:20.969Z,26.44
2018-07-19T10:58:20.952Z,27.33
2018-07-19T10:59:20.925Z,27.04
2018-07-19T11:00:20.931Z,27.25
2018-07-19T11:01:20.892Z,27.24
2018-07-19T11:02:20.884Z,28.01
2018-07-19T11:03:20.887Z,27.04
2018-07-19T11:04:20.881Z,27.49
2018-07-19T11:05:20.855Z,28.99
2018-07-19T11:06:20.848Z,28.58
2018-07-19T11:07:20.836Z,28.37
2018-07-19T11:08:20.827Z,28.47
2018-07-19T11:09:20.867Z,28.45
2018-07-19T11:10:20.815Z,28.34
2018-07-19T11:11:20.799Z,29.41
2018-07-19T11:12:20.791Z,28.01
2018-07-19T11:13:20.779Z,27.81
2018-07-19T11:14:20.770Z,27.21
2018-07-19T11:15:20.777Z,27.70
2018-07-19T11:16:20.783Z,27.49
2018-07-19T11:17:20.739Z,27.21
2018-07-19T11:18:20.731Z,25.74
2018-07-19T11:19:20.724Z,26.73
2018-07-19T11:20:20.735Z,26.34
2018-07-19T11:21:20.716Z,26.83
2018-07-19T11:22:20.692Z,26.72
2018-07-19T11:23:20.689Z,26.62
2018-07-19T11:24:20.675Z,26.82
2018-07-19T11:25:20.668Z,26.73
2018-07-19T11:26:20.704Z,27.21
2018-07-19T11:27:20.650Z,27.31
2018-07-19T11:28:20.653Z,27.39
2018-07-19T11:29:20.630Z,28.36
2018-07-19T11:30:20.636Z,27.87
2018-07-19T11:31:20.608Z,26.59
2018-07-19T11:32:20.614Z,26.81
2018-07-19T11:33:20.587Z,27.12
2018-07-19T11:34:20.582Z,28.25
2018-07-19T11:35:20.611Z,27.88
2018-07-19T11:36:20.561Z,28.97
2018-07-19T11:37:20.569Z,29.30
2018-07-19T11:38:20.550Z,29.79
2018-07-19T11:39:20.531Z,29.80
2018-07-19T11:40:20.523Z,29.62
2018-07-19T11:41:20.512Z,30.51
2018-07-19T11:42:20.501Z,29.31
2018-07-19T11:43:20.509Z,28.11
2018-07-19T11:44:20.480Z,29.75
2018-07-19T11:45:20.473Z,29.64
2018-07-19T11:46:20.460Z,29.28
2018-07-19T11:47:20.458Z,29.20
2018-07-19T11:48:20.443Z,29.30
2018-07-19T11:49:20.447Z,29.82
2018-07-19T11:50:20.419Z,29.62
2018-07-19T11:51:20.426Z,31.20
2018-07-19T11:52:20.401Z,30.40
2018-07-19T11:53:20.407Z,30.90
2018-07-19T11:54:20.383Z,30.82
2018-07-19T11:55:20.372Z,30.72
2018-07-19T11:56:20.371Z,31.01
2018-07-19T11:57:20.353Z,30.11
2018-07-19T11:58:20.356Z,30.49
2018-07-19T11:59:20.331Z,30.17
2018-07-19T12:00:20.319Z,29.86
2018-07-19T12:01:20.313Z,29.87
2018-07-19T12:02:20.303Z,29.48
2018-07-19T12:03:20.306Z,28.12
2018-07-19T12:04:20.281Z,29.61
2018-07-19T12:05:20.269Z,29.43
2018-07-19T12:06:20.283Z,30.71
2018-07-19T12:07:20.252Z,30.90
2018-07-19T12:08:20.239Z,30.77
2018-07-19T12:09:20.255Z,29.48
2018-07-19T12:10:20.226Z,29.16
2018-07-19T12:11:20.212Z,27.97
2018-07-19T12:12:20.201Z,28.85
2018-07-19T12:13:20.191Z,28.27
2018-07-19T12:14:20.183Z,28.16
2018-07-19T12:15:20.197Z,28.17
2018-07-19T12:16:20.162Z,28.78
2018-07-19T12:17:20.149Z,28.50
2018-07-19T12:18:20.140Z,28.09
2018-07-19T12:19:20.130Z,28.36
2018-07-19T12:20:20.120Z,27.97
2018-07-19T12:21:20.128Z,27.94
2018-07-19T12:22:20.106Z,27.45
2018-07-19T12:23:20.091Z,27.26
2018-07-19T12:24:20.085Z,27.25
2018-07-19T12:25:20.074Z,28.15
2018-07-19T12:26:20.085Z,28.05
2018-07-19T12:27:20.056Z,27.64
2018-07-19T12:28:20.043Z,27.63
2018-07-19T12:29:20.037Z,27.23
2018-07-19T12:30:20.025Z,27.23
2018-07-19T12:31:20.093Z,26.54
2018-07-19T12:32:20.009Z,26.92
2018-07-19T12:33:19.998Z,26.43
2018-07-19T12:34:19.989Z,26.43
2018-07-19T12:35:20.017Z,26.81
2018-07-19T12:36:19.967Z,27.10
2018-07-19T12:37:19.958Z,26.81
2018-07-19T12:38:19.951Z,26.61
2018-07-19T12:39:19.940Z,26.79
2018-07-19T12:40:19.929Z,26.89
2018-07-19T12:41:19.941Z,26.21
2018-07-19T12:42:19.910Z,26.50
2018-07-19T12:43:19.901Z,26.79
2018-07-19T12:44:19.897Z,25.23
2018-07-19T12:45:19.886Z,24.92
2018-07-19T12:46:19.877Z,25.06
2018-07-19T12:47:19.887Z,26.84
2018-07-19T12:48:19.859Z,27.34
2018-07-19T12:49:19.848Z,26.96
2018-07-19T12:50:19.839Z,26.86
2018-07-19T12:51:19.829Z,26.86
2018-07-19T12:52:19.822Z,27.83